createdAt,value
2022-10-23T00:01:19.958Z,96.92
2022-10-23T00:03:47.146Z,96.75
2022-10-23T00:06:14.548Z,96.81
2022-10-23T00:08:41.435Z,97.14
2022-10-23T00:11:09.815Z,97.26
2022-10-23T00:13:36.443Z,97.18
2022-10-23T00:16:02.862Z,97.07
2022-10-23T00:18:29.247Z,96.99
2022-10-23T00:20:56.443Z,96.77
2022-10-23T00:23:23.190Z,97.05
2022-10-23T00:25:49.524Z,97.22
2022-10-23T00:28:15.883Z,97.17
2022-10-23T00:30:42.480Z,97.38
2022-10-23T00:33:09.244Z,97.54
2022-10-23T00:35:39.679Z,97.52
2022-10-23T00:38:06.692Z,97.57
2022-10-23T00:40:33.180Z,97.66
2022-10-23T00:42:59.483Z,97.68
2022-10-23T00:45:28.562Z,97.68
2022-10-23T00:47:55.312Z,97.86
2022-10-23T00:50:23.825Z,97.98
2022-10-23T00:52:53.011Z,98.06
2022-10-23T00:55:23.299Z,97.97
2022-10-23T00:57:50.801Z,98.14
2022-10-23T01:00:27.021Z,98.43
2022-10-23T01:02:54.654Z,98.60
2022-10-23T01:05:27.189Z,98.65
2022-10-23T01:08:02.337Z,98.59
2022-10-23T01:10:45.338Z,98.60
2022-10-23T01:13:16.646Z,99.03
2022-10-23T01:15:49.015Z,99.26
2022-10-23T01:18:24.896Z,99.24
2022-10-23T01:21:04.970Z,99.41
2022-10-23T01:23:46.305Z,99.11
2022-10-23T01:26:43.987Z,98.70
2022-10-23T01:29:18.923Z,98.97
2022-10-23T01:31:49.205Z,99.25
2022-10-23T01:34:22.226Z,99.28
2022-10-23T01:36:51.677Z,99.27
2022-10-23T01:39:30.944Z,99.30
2022-10-23T01:42:08.715Z,99.16
2022-10-23T01:44:46.720Z,99.10
2022-10-23T01:47:15.923Z,99.37
2022-10-23T01:49:44.416Z,99.37
2022-10-23T01:52:14.115Z,99.55
2022-10-23T01:54:44.679Z,99.15
2022-10-23T01:57:16.106Z,99.28
2022-10-23T01:59:49.520Z,99.51
2022-10-23T02:02:17.465Z,99.78
2022-10-23T02:04:58.819Z,99.97
2022-10-23T02:07:25.266Z,100.00
2022-10-23T02:09:52.054Z,100.00
2022-10-23T02:12:40.285Z,100.00
2022-10-23T02:15:14.781Z,100.00
2022-10-23T02:18:17.219Z,100.00
2022-10-23T02:20:48.146Z,100.00
2022-10-23T02:23:21.538Z,100.00
2022-10-23T02:25:56.800Z,100.00
2022-10-23T02:28:34.206Z,100.00
2022-10-23T02:31:03.836Z,100.00
2022-10-23T02:33:31.276Z,100.00
2022-10-23T02:35:57.725Z,100.00
2022-10-23T02:38:29.770Z,99.98
2022-10-23T02:41:00.938Z,99.94
2022-10-23T02:43:37.208Z,99.98
2022-10-23T02:46:14.538Z,100.00
2022-10-23T02:48:51.530Z,100.00
2022-10-23T02:51:20.627Z,100.00
2022-10-23T02:54:31.476Z,100.00
2022-10-23T02:57:40.833Z,99.81
2022-10-23T03:00:15.234Z,100.00
2022-10-23T03:02:54.758Z,100.00
2022-10-23T03:05:25.542Z,100.00
2022-10-23T03:07:52.027Z,100.00
2022-10-23T03:10:18.423Z,100.00
2022-10-23T03:12:45.096Z,100.00
2022-10-23T03:15:11.857Z,100.00
2022-10-23T03:17:38.409Z,100.00
2022-10-23T03:20:06.449Z,100.00
2022-10-23T03:22:32.876Z,100.00
2022-10-23T03:24:59.211Z,100.00
2022-10-23T03:27:25.665Z,100.00
2022-10-23T03:29:52.051Z,100.00
2022-10-23T03:32:18.419Z,100.00
2022-10-23T03:34:44.767Z,100.00
2022-10-23T03:37:11.123Z,100.00
2022-10-23T03:39:37.449Z,100.00
2022-10-23T03:42:04.035Z,100.00
2022-10-23T03:44:30.400Z,100.00
2022-10-23T03:46:57.431Z,100.00
2022-10-23T03:49:23.735Z,100.00
2022-10-23T03:51:50.084Z,100.00
2022-10-23T03:54:16.402Z,100.00
2022-10-23T03:56:42.703Z,100.00
2022-10-23T03:59:09.051Z,100.00
2022-10-23T04:01:35.470Z,100.00
2022-10-23T04:04:01.925Z,100.00
2022-10-23T04:06:28.262Z,100.00
2022-10-23T04:08:54.729Z,100.00
2022-10-23T04:11:21.040Z,100.00
2022-10-23T04:13:47.510Z,100.00
2022-10-23T04:16:13.837Z,100.00
2022-10-23T04:18:41.441Z,100.00
2022-10-23T04:21:07.958Z,100.00
2022-10-23T04:23:34.267Z,100.00
2022-10-23T04:26:00.653Z,100.00
2022-10-23T04:28:27.496Z,100.00
2022-10-23T04:30:53.940Z,100.00
2022-10-23T04:33:21.359Z,100.00
2022-10-23T04:35:47.708Z,100.00
2022-10-23T04:38:14.008Z,100.00
2022-10-23T04:40:40.369Z,100.00
2022-10-23T04:43:06.706Z,100.00
2022-10-23T04:45:33.050Z,100.00
2022-10-23T04:47:59.371Z,100.00
2022-10-23T04:50:25.987Z,100.00
2022-10-23T04:52:58.690Z,100.00
2022-10-23T04:55:25.043Z,100.00
2022-10-23T04:57:52.182Z,100.00
2022-10-23T05:00:19.216Z,100.00
2022-10-23T05:02:45.823Z,100.00
2022-10-23T05:05:12.159Z,100.00
2022-10-23T05:07:38.854Z,100.00
2022-10-23T05:10:06.448Z,100.00
2022-10-23T05:12:32.757Z,100.00
2022-10-23T05:14:59.074Z,100.00
2022-10-23T05:17:34.399Z,100.00
2022-10-23T05:20:05.107Z,100.00
2022-10-23T05:22:35.244Z,100.00
2022-10-23T05:25:01.898Z,100.00
2022-10-23T05:27:28.275Z,100.00
2022-10-23T05:29:54.593Z,100.00
2022-10-23T05:34:54.038Z,100.00
2022-10-23T05:37:20.453Z,100.00
2022-10-23T05:39:46.914Z,100.00
2022-10-23T05:42:13.374Z,100.00
2022-10-23T05:44:39.762Z,100.00
2022-10-23T05:47:07.659Z,100.00
2022-10-23T05:49:34.515Z,100.00
2022-10-23T05:52:00.817Z,100.00
2022-10-23T05:54:27.190Z,100.00
2022-10-23T05:56:53.490Z,100.00
2022-10-23T05:59:22.865Z,100.00
2022-10-23T06:01:49.987Z,100.00
2022-10-23T06:04:16.381Z,100.00
2022-10-23T06:06:45.621Z,100.00
2022-10-23T06:09:12.199Z,100.00
2022-10-23T06:11:38.551Z,100.00
2022-10-23T06:14:04.877Z,100.00
2022-10-23T06:16:31.217Z,100.00
2022-10-23T06:18:57.570Z,100.00
2022-10-23T06:21:24.363Z,100.00
2022-10-23T06:23:50.744Z,100.00
2022-10-23T06:26:18.457Z,100.00
2022-10-23T06:28:45.257Z,100.00
2022-10-23T06:31:14.797Z,100.00
2022-10-23T06:33:41.963Z,100.00
2022-10-23T06:36:08.807Z,100.00
2022-10-23T06:38:35.114Z,100.00
2022-10-23T06:41:01.440Z,100.00
2022-10-23T06:43:27.760Z,100.00
2022-10-23T06:45:54.108Z,100.00
2022-10-23T06:48:20.603Z,100.00
2022-10-23T06:50:46.971Z,100.00
2022-10-23T06:53:13.361Z,100.00
2022-10-23T06:55:39.720Z,100.00
2022-10-23T06:58:07.128Z,100.00
2022-10-23T07:00:33.461Z,100.00
2022-10-23T07:02:59.854Z,100.00
2022-10-23T07:05:26.195Z,99.78
2022-10-23T07:07:52.506Z,99.22
2022-10-23T07:10:18.824Z,99.07
2022-10-23T07:12:45.655Z,99.09
2022-10-23T07:15:12.157Z,99.02
2022-10-23T07:17:38.473Z,98.97
2022-10-23T07:20:05.203Z,98.99
2022-10-23T07:22:31.510Z,98.62
2022-10-23T07:24:57.880Z,98.20
2022-10-23T07:27:25.120Z,97.60
2022-10-23T07:29:52.299Z,96.91
2022-10-23T07:32:19.340Z,96.47
2022-10-23T07:34:45.726Z,96.53
2022-10-23T07:37:12.086Z,96.63
2022-10-23T07:39:38.408Z,96.15
2022-10-23T07:42:04.837Z,96.11
2022-10-23T07:44:31.155Z,96.25
2022-10-23T07:46:57.445Z,95.19
2022-10-23T07:49:23.770Z,94.42
2022-10-23T07:51:51.598Z,94.39
2022-10-23T07:54:18.190Z,94.48
2022-10-23T07:56:44.553Z,93.96
2022-10-23T07:59:12.634Z,93.57
2022-10-23T08:01:39.894Z,93.12
2022-10-23T08:04:06.721Z,92.87
2022-10-23T08:06:33.706Z,93.12
2022-10-23T08:09:02.369Z,92.74
2022-10-23T08:11:32.444Z,92.46
2022-10-23T08:13:58.797Z,92.48
2022-10-23T08:16:25.600Z,91.94
2022-10-23T08:18:52.037Z,90.96
2022-10-23T08:21:18.736Z,90.62
2022-10-23T08:23:45.060Z,90.29
2022-10-23T08:26:11.860Z,89.99
2022-10-23T08:28:38.465Z,89.25
2022-10-23T08:31:14.216Z,88.57
2022-10-23T08:33:41.090Z,88.62
2022-10-23T08:36:16.935Z,88.92
2022-10-23T08:38:43.555Z,88.82
2022-10-23T08:41:27.277Z,87.82
2022-10-23T08:44:18.806Z,87.87
2022-10-23T08:46:50.525Z,87.78
2022-10-23T08:49:26.031Z,87.68
2022-10-23T08:51:56.826Z,87.16
2022-10-23T08:54:44.983Z,86.60
2022-10-23T08:57:15.632Z,86.07
2022-10-23T08:59:48.899Z,86.59
2022-10-23T09:02:25.927Z,86.11
2022-10-23T09:04:54.329Z,86.15
2022-10-23T09:07:57.963Z,86.24
2022-10-23T09:10:48.049Z,85.82
2022-10-23T09:13:32.085Z,85.15
2022-10-23T09:16:21.730Z,84.82
2022-10-23T09:18:49.678Z,84.95
2022-10-23T09:21:16.061Z,84.99
2022-10-23T09:23:42.658Z,84.22
2022-10-23T09:26:15.345Z,84.72
2022-10-23T09:29:02.082Z,84.73
2022-10-23T09:31:28.419Z,84.33
2022-10-23T09:33:57.049Z,83.91
2022-10-23T09:36:24.476Z,84.57
2022-10-23T09:38:53.078Z,85.20
2022-10-23T09:41:23.198Z,84.06
2022-10-23T09:44:07.615Z,82.91
2022-10-23T09:46:43.311Z,81.58
2022-10-23T09:49:18.121Z,81.13
2022-10-23T09:52:01.361Z,80.36
2022-10-23T09:54:30.711Z,80.84
2022-10-23T09:57:03.462Z,80.93
2022-10-23T09:59:31.150Z,80.85
2022-10-23T10:02:02.277Z,81.03
2022-10-23T10:04:41.707Z,79.81
2022-10-23T10:07:36.650Z,80.29
2022-10-23T10:10:13.599Z,79.87
2022-10-23T10:12:52.866Z,78.80
2022-10-23T10:15:43.222Z,78.65
2022-10-23T10:18:18.284Z,78.44
2022-10-23T10:21:03.383Z,78.82
2022-10-23T10:23:45.459Z,78.47
2022-10-23T10:29:11.794Z,77.88
2022-10-23T10:31:58.957Z,77.00
2022-10-23T10:34:55.136Z,77.39
2022-10-23T10:37:31.826Z,76.79
2022-10-23T10:40:23.338Z,76.19
2022-10-23T10:43:00.540Z,77.63
2022-10-23T10:45:38.357Z,76.83
2022-10-23T10:48:39.927Z,75.64
2022-10-23T10:51:23.942Z,76.10
2022-10-23T10:54:27.720Z,75.81
2022-10-23T10:56:55.400Z,76.81
2022-10-23T10:59:28.035Z,77.55
2022-10-23T11:02:20.093Z,77.26
2022-10-23T11:05:06.743Z,76.84
2022-10-23T11:07:42.257Z,76.97
2022-10-23T11:10:17.593Z,76.18
2022-10-23T11:12:46.831Z,75.88
2022-10-23T11:15:20.633Z,75.77
2022-10-23T11:17:51.076Z,75.53
2022-10-23T11:20:55.852Z,75.91
2022-10-23T11:23:48.008Z,75.20
2022-10-23T11:26:34.110Z,75.30
2022-10-23T11:29:18.894Z,74.76
2022-10-23T11:32:03.410Z,74.82
2022-10-23T11:34:57.741Z,73.41
2022-10-23T11:37:24.530Z,73.18
2022-10-23T11:40:01.722Z,73.11
2022-10-23T11:42:40.176Z,73.65
2022-10-23T11:45:33.162Z,74.36
2022-10-23T11:48:20.907Z,73.63
2022-10-23T11:50:47.196Z,74.07
2022-10-23T11:53:32.215Z,74.71
2022-10-23T11:56:13.470Z,75.26
2022-10-23T11:58:49.456Z,74.35
2022-10-23T12:01:37.396Z,75.37
2022-10-23T12:04:14.891Z,74.80
2022-10-23T12:06:54.269Z,74.95
2022-10-23T12:09:29.839Z,75.19
2022-10-23T12:12:14.760Z,74.86
2022-10-23T12:14:45.616Z,74.61
2022-10-23T12:17:24.200Z,75.58
2022-10-23T12:19:54.976Z,75.92
2022-10-23T12:22:32.702Z,75.53
2022-10-23T12:25:08.663Z,75.49
2022-10-23T12:27:45.872Z,75.40
2022-10-23T12:30:32.742Z,74.08
2022-10-23T12:33:29.046Z,73.51
2022-10-23T12:36:24.995Z,73.83
2022-10-23T12:38:51.294Z,73.54
2022-10-23T12:41:24.121Z,73.33
2022-10-23T12:43:55.800Z,73.29
2022-10-23T12:46:30.308Z,73.99
2022-10-23T12:48:58.304Z,74.33
2022-10-23T12:51:29.761Z,74.89
2022-10-23T12:53:56.670Z,75.58
2022-10-23T12:56:25.103Z,75.55
2022-10-23T12:58:55.504Z,76.02
2022-10-23T13:01:33.781Z,76.49
2022-10-23T13:04:31.998Z,76.06
2022-10-23T13:07:00.711Z,76.41
2022-10-23T13:09:40.846Z,76.54
2022-10-23T13:12:14.822Z,77.04
2022-10-23T13:14:54.127Z,76.92
2022-10-23T13:17:20.449Z,77.04
2022-10-23T13:19:46.849Z,77.67
2022-10-23T13:22:20.849Z,77.66
2022-10-23T13:24:47.764Z,77.90
2022-10-23T13:27:33.511Z,77.16
2022-10-23T13:30:00.206Z,77.61
2022-10-23T13:32:30.014Z,77.13
2022-10-23T13:35:10.029Z,76.69
2022-10-23T13:40:24.567Z,76.74
2022-10-23T13:42:52.754Z,75.79
2022-10-23T13:45:22.994Z,75.48
2022-10-23T13:47:49.826Z,76.05
2022-10-23T13:50:17.063Z,75.48
2022-10-23T13:52:43.419Z,75.24
2022-10-23T13:55:22.943Z,74.89
2022-10-23T13:57:49.488Z,75.79
2022-10-23T14:00:16.494Z,76.27
2022-10-23T14:02:43.477Z,76.34
2022-10-23T14:05:10.482Z,76.48
2022-10-23T14:07:36.856Z,76.81
2022-10-23T14:10:04.227Z,76.87
2022-10-23T14:12:30.628Z,75.91
2022-10-23T14:14:56.969Z,75.20
2022-10-23T14:17:23.299Z,75.27
2022-10-23T14:19:49.622Z,74.65
2022-10-23T14:22:15.962Z,74.20
2022-10-23T14:24:42.287Z,73.46
2022-10-23T14:27:08.604Z,73.24
2022-10-23T14:29:35.050Z,72.36
2022-10-23T14:32:01.345Z,71.35
2022-10-23T14:34:27.686Z,72.26
2022-10-23T14:37:07.396Z,71.44
2022-10-23T14:39:34.815Z,71.75
2022-10-23T14:42:01.191Z,71.92
2022-10-23T14:44:27.549Z,71.26
2022-10-23T14:46:53.879Z,72.10
2022-10-23T14:49:20.230Z,71.76
2022-10-23T14:51:46.531Z,72.60
2022-10-23T14:54:12.854Z,72.35
2022-10-23T14:56:39.250Z,72.75
2022-10-23T14:59:05.565Z,72.58
2022-10-23T15:01:34.358Z,72.76
2022-10-23T15:04:00.772Z,71.04
2022-10-23T15:06:27.220Z,71.21
2022-10-23T15:08:54.102Z,70.75
2022-10-23T15:11:20.873Z,71.97
2022-10-23T15:13:47.313Z,72.01
2022-10-23T15:16:13.790Z,72.54
2022-10-23T15:18:40.140Z,72.95
2022-10-23T15:21:08.058Z,72.55
2022-10-23T15:23:40.033Z,73.29
2022-10-23T15:26:16.261Z,74.33
2022-10-23T15:28:42.588Z,74.41
2022-10-23T15:31:29.770Z,74.43
2022-10-23T15:33:56.912Z,74.00
2022-10-23T15:36:23.427Z,74.30
2022-10-23T15:38:50.002Z,74.73
2022-10-23T15:41:21.018Z,73.96
2022-10-23T15:43:47.486Z,75.46
2022-10-23T15:46:13.861Z,76.00
2022-10-23T15:48:40.127Z,76.27
2022-10-23T15:51:06.383Z,77.44
2022-10-23T15:53:33.140Z,77.40
2022-10-23T15:55:59.425Z,77.89
2022-10-23T15:58:26.182Z,78.23
2022-10-23T16:00:52.472Z,78.30
2022-10-23T16:03:18.773Z,78.82
2022-10-23T16:05:45.117Z,78.72
2022-10-23T16:08:11.398Z,78.73
2022-10-23T16:10:42.277Z,79.31
2022-10-23T16:13:09.101Z,79.62
2022-10-23T16:15:36.195Z,80.24
2022-10-23T16:18:02.527Z,80.52
2022-10-23T16:20:28.907Z,81.03
2022-10-23T16:22:55.210Z,81.93
2022-10-23T16:25:21.573Z,82.14
2022-10-23T16:27:47.954Z,81.66
2022-10-23T16:30:14.855Z,81.30
2022-10-23T16:32:41.203Z,81.15
2022-10-23T16:35:11.019Z,81.19
2022-10-23T16:37:39.392Z,81.06
2022-10-23T16:40:06.256Z,80.49
2022-10-23T16:42:32.582Z,80.42
2022-10-23T16:44:58.899Z,80.58
2022-10-23T16:47:26.806Z,80.58
2022-10-23T16:49:53.111Z,79.99
2022-10-23T16:52:19.445Z,79.92
2022-10-23T16:54:45.781Z,79.41
2022-10-23T16:57:12.108Z,79.29
2022-10-23T16:59:38.446Z,79.12
2022-10-23T17:02:05.131Z,80.51
2022-10-23T17:04:31.613Z,82.16
2022-10-23T17:06:57.982Z,84.37
2022-10-23T17:09:24.290Z,85.38
2022-10-23T17:11:50.610Z,87.01
2022-10-23T17:14:19.087Z,88.00
2022-10-23T17:16:51.197Z,89.04
2022-10-23T17:19:40.018Z,89.99
2022-10-23T17:22:07.088Z,90.21
2022-10-23T17:24:33.403Z,91.35
2022-10-23T17:27:00.149Z,91.31
2022-10-23T17:29:26.515Z,91.61
2022-10-23T17:31:52.865Z,91.46
2022-10-23T17:34:22.275Z,91.67
2022-10-23T17:36:51.460Z,91.37
2022-10-23T17:39:21.685Z,91.52
2022-10-23T17:41:48.564Z,92.08
2022-10-23T17:44:15.154Z,92.61
2022-10-23T17:46:41.568Z,92.41
2022-10-23T17:49:08.110Z,92.52
2022-10-23T17:51:35.747Z,93.25
2022-10-23T17:54:05.342Z,93.23
2022-10-23T17:56:33.051Z,93.20
2022-10-23T17:59:02.719Z,92.95
2022-10-23T18:01:29.772Z,93.36
2022-10-23T18:03:59.756Z,93.72
2022-10-23T18:06:29.764Z,93.67
2022-10-23T18:08:56.568Z,94.09
2022-10-23T18:11:26.345Z,93.99
2022-10-23T18:13:53.695Z,94.02
2022-10-23T18:16:20.851Z,93.94
2022-10-23T18:18:48.499Z,94.12
2022-10-23T18:21:16.561Z,94.22
2022-10-23T18:23:43.071Z,93.94
2022-10-23T18:26:24.463Z,93.83
2022-10-23T18:28:53.218Z,94.42
2022-10-23T18:31:20.158Z,94.54
2022-10-23T18:33:47.199Z,94.68
2022-10-23T18:36:22.119Z,94.04
2022-10-23T18:38:49.062Z,93.72
2022-10-23T18:41:16.287Z,93.96
2022-10-23T18:43:44.377Z,93.94
2022-10-23T18:46:15.223Z,93.69
2022-10-23T18:48:42.641Z,93.56
2022-10-23T18:51:24.683Z,93.99
2022-10-23T18:53:51.725Z,93.99
2022-10-23T18:56:20.771Z,94.10
2022-10-23T18:58:47.439Z,94.76
2022-10-23T19:01:13.815Z,95.55
2022-10-23T19:03:40.289Z,96.02
2022-10-23T19:06:08.167Z,96.27
2022-10-23T19:08:39.907Z,96.09
2022-10-23T19:11:10.135Z,96.09
2022-10-23T19:13:39.027Z,96.89
2022-10-23T19:16:21.122Z,97.78
2022-10-23T19:18:54.011Z,98.18
2022-10-23T19:21:23.721Z,98.72
2022-10-23T19:23:50.622Z,98.96
2022-10-23T19:26:17.425Z,99.45
2022-10-23T19:28:47.310Z,99.66
2022-10-23T19:31:13.788Z,100.00
2022-10-23T19:33:40.148Z,99.97
2022-10-23T19:36:11.100Z,100.00
2022-10-23T19:38:40.401Z,99.57
2022-10-23T19:41:07.295Z,98.93
2022-10-23T19:43:33.643Z,98.83
2022-10-23T19:46:06.499Z,99.26
2022-10-23T19:48:35.832Z,99.63
2022-10-23T19:51:02.175Z,99.61
2022-10-23T19:53:28.549Z,99.81
2022-10-23T19:56:03.638Z,99.95
2022-10-23T19:58:29.981Z,100.00
2022-10-23T20:00:56.325Z,100.00
2022-10-23T20:03:22.654Z,100.00
2022-10-23T20:05:48.964Z,100.00
2022-10-23T20:08:15.431Z,100.00
2022-10-23T20:10:43.140Z,100.00
2022-10-23T20:13:19.332Z,100.00
2022-10-23T20:15:46.794Z,100.00
2022-10-23T20:18:13.099Z,100.00
2022-10-23T20:20:40.883Z,100.00
2022-10-23T20:23:07.426Z,100.00
2022-10-23T20:25:33.774Z,100.00
2022-10-23T20:28:00.169Z,100.00
2022-10-23T20:30:26.559Z,100.00
2022-10-23T20:32:52.948Z,100.00
2022-10-23T20:35:19.305Z,100.00
2022-10-23T20:37:46.101Z,100.00
2022-10-23T20:40:12.723Z,100.00
2022-10-23T20:42:39.054Z,100.00
2022-10-23T20:45:05.999Z,100.00
2022-10-23T20:47:32.343Z,100.00
2022-10-23T20:49:58.693Z,100.00
2022-10-23T20:52:25.032Z,100.00
2022-10-23T20:54:51.352Z,100.00
2022-10-23T20:57:20.597Z,100.00
2022-10-23T20:59:47.760Z,100.00
2022-10-23T21:02:14.146Z,100.00
2022-10-23T21:04:40.567Z,100.00
2022-10-23T21:07:11.432Z,100.00
2022-10-23T21:09:38.862Z,100.00
2022-10-23T21:12:06.107Z,100.00
2022-10-23T21:14:32.517Z,100.00
2022-10-23T21:16:58.902Z,100.00
2022-10-23T21:19:25.243Z,100.00
2022-10-23T21:21:51.563Z,100.00
2022-10-23T21:24:17.913Z,100.00
2022-10-23T21:26:45.282Z,100.00
2022-10-23T21:29:18.550Z,100.00
2022-10-23T21:31:45.209Z,100.00
2022-10-23T21:36:54.153Z,100.00
2022-10-23T21:39:29.168Z,100.00
2022-10-23T21:41:55.479Z,100.00
2022-10-23T21:44:21.857Z,100.00
2022-10-23T21:46:48.163Z,100.00
2022-10-23T21:49:14.489Z,100.00
2022-10-23T21:51:40.870Z,100.00
2022-10-23T21:54:11.317Z,100.00
2022-10-23T21:56:45.081Z,100.00
2022-10-23T21:59:16.511Z,100.00
2022-10-23T22:01:45.618Z,100.00
2022-10-23T22:04:13.490Z,100.00
2022-10-23T22:06:41.099Z,100.00
2022-10-23T22:09:08.869Z,100.00
2022-10-23T22:11:35.272Z,100.00
2022-10-23T22:14:01.577Z,100.00
2022-10-23T22:16:28.135Z,100.00
2022-10-23T22:18:54.486Z,100.00
2022-10-23T22:21:26.703Z,100.00
2022-10-23T22:23:58.028Z,100.00
2022-10-23T22:26:31.705Z,100.00
2022-10-23T22:29:00.861Z,100.00
2022-10-23T22:31:29.887Z,100.00
2022-10-23T22:33:57.212Z,98.93
2022-10-23T22:36:24.765Z,97.92
2022-10-23T22:38:51.515Z,97.62
2022-10-23T22:41:18.075Z,97.29
2022-10-23T22:43:44.447Z,97.50
2022-10-23T22:46:16.690Z,97.90
2022-10-23T22:48:43.624Z,98.42
2022-10-23T22:51:15.357Z,98.50
2022-10-23T22:53:42.501Z,98.62
2022-10-23T22:56:11.920Z,98.80
2022-10-23T22:58:38.288Z,98.86
2022-10-23T23:01:09.419Z,99.48
2022-10-23T23:03:37.410Z,99.59
2022-10-23T23:06:06.415Z,99.73
2022-10-23T23:08:33.502Z,99.88
2022-10-23T23:11:00.704Z,100.00
2022-10-23T23:13:27.806Z,100.00
2022-10-23T23:15:55.097Z,99.92
2022-10-23T23:18:21.841Z,100.00
2022-10-23T23:20:48.544Z,100.00
2022-10-23T23:23:15.458Z,100.00
2022-10-23T23:25:43.597Z,100.00
2022-10-23T23:28:17.036Z,100.00
2022-10-23T23:30:43.822Z,100.00
2022-10-23T23:33:11.525Z,100.00
2022-10-23T23:35:42.965Z,100.00
2022-10-23T23:38:09.992Z,100.00
2022-10-23T23:40:36.345Z,100.00
2022-10-23T23:43:03.433Z,100.00
2022-10-23T23:45:29.795Z,100.00
2022-10-23T23:47:57.285Z,100.00
2022-10-23T23:50:24.918Z,100.00
2022-10-23T23:52:51.341Z,100.00
2022-10-23T23:55:17.751Z,100.00
2022-10-23T23:57:44.230Z,100.00
